Main page
METAR-TAF:

METAR-TAF

Airports :

Franklin County State Airport

Franklin County, Vermont, United States

latitude: 44-56-25N, longitude: 073-05-51W, elevation: 226 ft

Current weather observation

The report was made 28 minutes ago, at 17:55 UTC
Wind 10 mph from the Southwest with gusts up to 16 mph, varying between South and West/Southwest
Temperature 34°F
Humidity 93%
Pressure 29.23 in. Hg
Visibility: 0.5 miles
Overcast at a height of 400 ft
snow

METAR: KFSO 271755Z AUTO 22009G14KT 180V250 1/2SM SN OVC004 01/00 A2923 RMK AO2 T00070000 10058 20007

Time: 13:23 (18:23 UTC)


TAF: missing

Weather observations and forecasts of more than 4000 airports (METAR and TAF reports).

The available stations are represented by yellow and red dots on the map.

Hover mouse over dot to see the name of the station.

Then click to see weather observations and forecasts.

To change the map : click on the green buttons with a black cross to zoom in, on the green button with a dash to zoom out, or on the green arrows for adjacent maps.


METAR-TAF: